Time;durP1;ratioP1;P1;durP2;ratioP2;P2;SDS_P1;SDS_P2;PMS_P1;PMS_P2;Temp;Humidity;BMP_temperature;BMP_pressure;BME280_temperature;BME280_humidity;BME280_pressure;Samples;Min_cycle;Max_cycle;Signal;HPM_P1;HPM_P2
2022/12/08 00:00:10;;;;;;;36.70;24.10;;;;;;;-2.44;100.00;97242.19;107816;1266;71429;-70
2022/12/08 00:03:00;;;;;;;39.20;26.90;;;;;;;-2.48;100.00;97238.87;107681;1267;70218;-70
2022/12/08 00:11:10;;;;;;;33.80;21.20;;;;;;;-2.49;100.00;97247.08;107761;1269;59748;-70
2022/12/08 00:13:41;;;;;;;35.70;24.60;;;;;;;-2.51;100.00;97241.99;107662;1265;72017;-70
2022/12/08 00:16:11;;;;;;;38.50;23.50;;;;;;;-2.54;100.00;97243.61;107687;1267;69229;-70
2022/12/08 00:18:40;;;;;;;33.70;23.10;;;;;;;-2.58;100.00;97242.17;107703;1269;68414;-70
2022/12/08 00:21:10;;;;;;;;;;;;;;;-2.63;100.00;97243.63;107653;1269;59775;-69
2022/12/08 00:23:39;;;;;;;48.00;28.60;;;;;;;-2.67;100.00;97243.90;107695;1270;59703;-72
2022/12/08 00:26:09;;;;;;;56.80;33.80;;;;;;;-2.67;100.00;97242.89;107693;1269;70805;-71
2022/12/08 00:28:38;;;;;;;44.90;26.10;;;;;;;-2.68;100.00;97248.02;107688;1265;69211;-70
2022/12/08 00:31:10;;;;;;;33.20;22.60;;;;;;;-2.70;100.00;97244.14;107750;1269;69094;-70
2022/12/08 00:33:39;;;;;;;35.70;22.90;;;;;;;-2.70;100.00;97244.48;107681;1269;59727;-70
2022/12/08 00:36:11;;;;;;;47.20;30.00;;;;;;;-2.71;100.00;97247.93;107680;1266;59703;-70
2022/12/08 00:38:43;;;;;;;44.40;29.20;;;;;;;-2.75;100.00;97245.96;107693;1269;72010;-70
2022/12/08 00:41:15;;;;;;;39.30;24.90;;;;;;;-2.79;100.00;97248.44;107688;1269;68832;-70
2022/12/08 00:43:44;;;;;;;28.30;19.80;;;;;;;-2.83;100.00;97255.69;107758;1265;69376;-70
2022/12/08 00:46:14;;;;;;;35.60;24.10;;;;;;;-2.87;100.00;97257.98;107753;1263;59714;-70
2022/12/08 00:48:43;;;;;;;33.10;22.70;;;;;;;-2.90;100.00;97261.13;107701;1265;59769;-70
2022/12/08 00:51:14;;;;;;;28.70;21.30;;;;;;;-2.92;100.00;97257.59;107707;1266;71424;-71
2022/12/08 00:53:44;;;;;;;35.80;23.20;;;;;;;-2.96;100.00;97257.85;107776;1265;69210;-70
2022/12/08 00:56:14;;;;;;;38.90;25.50;;;;;;;-3.00;100.00;97257.44;107690;1269;68482;-70
2022/12/08 00:58:44;;;;;;;45.90;25.20;;;;;;;-3.02;100.00;97261.21;107737;1265;59765;-70
2022/12/08 01:01:15;;;;;;;43.70;25.00;;;;;;;-3.04;100.00;97259.06;107682;1269;59749;-70
2022/12/08 01:03:46;;;;;;;39.50;24.00;;;;;;;-3.07;100.00;97259.61;107652;1269;69809;-70
2022/12/08 01:06:16;;;;;;;33.70;22.80;;;;;;;-3.07;100.00;97263.36;107704;1263;68347;-71
2022/12/08 01:08:47;;;;;;;37.30;23.30;;;;;;;-3.07;100.00;97267.64;107714;1269;68525;-70
2022/12/08 01:11:19;;;;;;;33.90;22.40;;;;;;;-3.08;100.00;97272.10;107698;1267;59775;-70
2022/12/08 01:13:48;;;;;;;30.50;20.00;;;;;;;-3.11;100.00;97274.35;107669;1269;59782;-70
2022/12/08 01:16:28;;;;;;;31.50;20.90;;;;;;;-3.13;100.00;97271.34;107718;1269;69803;-71
2022/12/08 01:19:00;;;;;;;33.60;21.30;;;;;;;-3.16;100.00;97265.95;107686;1259;69105;-70
2022/12/08 01:21:30;;;;;;;29.30;20.90;;;;;;;-3.20;100.00;97268.59;107653;1262;69293;-71
2022/12/08 01:24:01;;;;;;;30.10;20.90;;;;;;;-3.24;100.00;97267.14;107695;1265;59784;-71
2022/12/08 01:26:32;;;;;;;37.40;22.60;;;;;;;-3.28;100.00;97267.05;107632;1266;59710;-70
2022/12/08 01:29:04;;;;;;;28.80;18.20;;;;;;;-3.30;100.00;97266.55;107678;1266;71714;-70
2022/12/08 01:31:33;;;;;;;30.10;18.00;;;;;;;-3.32;100.00;97269.17;107684;1263;68365;-71
2022/12/08 01:34:04;;;;;;;;;;;;;;;-3.36;100.00;97265.84;107694;1266;69276;-70
2022/12/08 01:36:37;;;;;;;;;;;;;;;-3.38;100.00;97265.55;107676;1266;59833;-71
2022/12/08 01:39:15;;;;;;;24.40;16.90;;;;;;;-3.43;100.00;97264.98;107653;1265;59665;-70
2022/12/08 01:41:47;;;;;;;32.10;18.40;;;;;;;-3.48;100.00;97263.85;107658;1265;70718;-70
2022/12/08 01:44:17;;;;;;;29.20;17.30;;;;;;;-3.49;100.00;97264.58;107724;1268;69001;-69
2022/12/08 01:46:49;;;;;;;40.10;22.90;;;;;;;-3.51;100.00;97261.02;107721;1266;68324;-69
2022/12/08 01:49:27;;;;;;;39.40;22.70;;;;;;;-3.51;100.00;97264.61;107702;1262;59753;-70
2022/12/08 01:52:04;;;;;;;31.70;19.00;;;;;;;-3.53;100.00;97260.72;107716;1267;59702;-69
2022/12/08 01:54:40;;;;;;;43.30;25.20;;;;;;;-3.56;100.00;97260.95;107626;1266;70458;-69
2022/12/08 01:57:16;;;;;;;28.10;17.10;;;;;;;-3.54;100.00;97260.42;107628;1266;68432;-70
2022/12/08 01:59:57;;;;;;;39.00;23.20;;;;;;;-3.52;100.00;97258.48;107805;1267;69741;-70
2022/12/08 02:02:33;;;;;;;37.30;22.50;;;;;;;-3.49;100.00;97259.80;107900;1266;59725;-70
2022/12/08 02:05:05;;;;;;;38.60;21.90;;;;;;;-3.49;100.00;97260.98;107615;1266;59660;-70
2022/12/08 02:07:37;;;;;;;44.70;25.40;;;;;;;-3.49;100.00;97265.41;107748;1268;70583;-70
2022/12/08 02:10:12;;;;;;;43.40;25.90;;;;;;;-3.51;100.00;97268.00;107754;1265;69049;-70
2022/12/08 02:12:45;;;;;;;40.70;24.20;;;;;;;-3.59;100.00;97266.63;107807;1265;69094;-70
2022/12/08 02:15:17;;;;;;;30.50;19.20;;;;;;;-3.67;100.00;97268.98;107641;1265;59768;-70
2022/12/08 02:18:22;;;;;;;35.80;21.90;;;;;;;-3.73;100.00;97264.86;107629;1267;59697;-70
2022/12/08 02:21:11;;;;;;;32.70;20.10;;;;;;;-3.78;100.00;97269.54;107687;1265;71666;-70
2022/12/08 02:24:07;;;;;;;26.40;19.40;;;;;;;-3.84;100.00;97270.66;107709;1267;68384;-69
2022/12/08 02:27:09;;;;;;;27.80;18.70;;;;;;;-3.88;100.00;97270.57;107631;1268;69685;-69
2022/12/08 02:30:09;;;;;;;35.40;23.20;;;;;;;-3.90;100.00;97270.27;107664;1267;59749;-70
2022/12/08 02:32:55;;;;;;;43.40;24.40;;;;;;;-3.90;100.00;97272.63;107679;1268;59662;-70
2022/12/08 02:35:52;;;;;;;49.30;26.70;;;;;;;-3.89;100.00;97274.16;107650;1269;71417;-70
2022/12/08 02:38:44;;;;;;;56.60;30.00;;;;;;;-3.90;100.00;97277.23;107760;1265;68418;-69
2022/12/08 02:41:24;;;;;;;39.30;24.30;;;;;;;-3.91;100.00;97272.67;107724;1267;69217;-70
2022/12/08 02:44:04;;;;;;;41.20;24.60;;;;;;;-3.91;100.00;97276.77;107663;1269;59695;-71
2022/12/08 02:46:53;;;;;;;45.50;26.60;;;;;;;-3.93;100.00;97277.12;107718;1263;59725;-70
2022/12/08 02:49:36;;;;;;;52.80;27.00;;;;;;;-3.90;100.00;97278.78;107722;1267;70609;-70
2022/12/08 02:52:13;;;;;;;44.70;24.60;;;;;;;-3.87;100.00;97281.79;107780;1269;69303;-70
2022/12/08 02:54:50;;;;;;;41.90;25.20;;;;;;;-3.85;100.00;97282.76;107840;1265;68498;-70
2022/12/08 02:57:56;;;;;;;39.20;21.50;;;;;;;-3.84;100.00;97282.41;107820;1265;59716;-70
2022/12/08 03:00:35;;;;;;;44.50;25.30;;;;;;;-3.80;100.00;97290.01;107737;1268;59707;-70
2022/12/08 03:03:14;;;;;;;50.00;28.10;;;;;;;-3.72;100.00;97292.08;107802;1263;70529;-69
2022/12/08 03:05:55;;;;;;;50.50;29.60;;;;;;;-3.66;100.00;97285.50;107797;1265;69205;-69
2022/12/08 03:08:35;;;;;;;43.50;27.10;;;;;;;-3.61;100.00;97287.09;107742;1267;68426;-69
2022/12/08 03:11:19;;;;;;;;;;;;;;;-3.58;100.00;97289.61;107717;1271;60044;-70
2022/12/08 03:14:00;;;;;;;35.50;21.40;;;;;;;-3.62;100.00;97287.80;107756;1259;59781;-70
2022/12/08 03:16:34;;;;;;;47.70;27.20;;;;;;;-3.65;100.00;97285.14;107821;1269;70633;-70
2022/12/08 03:19:18;;;;;;;50.40;27.40;;;;;;;-3.67;100.00;97277.34;107742;1263;67991;-69
2022/12/08 03:21:52;;;;;;;45.20;26.40;;;;;;;-3.69;100.00;97276.18;107772;1268;69258;-69
2022/12/08 03:24:23;;;;;;;43.30;27.30;;;;;;;-3.70;100.00;97271.77;107766;1263;59697;-70
2022/12/08 03:26:59;;;;;;;46.90;27.70;;;;;;;-3.71;100.00;97273.83;107822;1263;59702;-71
2022/12/08 03:29:31;;;;;;;43.30;27.00;;;;;;;-3.73;100.00;97273.54;107772;1267;70605;-70
2022/12/08 03:32:11;;;;;;;36.00;20.50;;;;;;;-3.74;100.00;97276.96;107811;1268;69061;-70
2022/12/08 03:34:45;;;;;;;36.60;21.30;;;;;;;-3.74;100.00;97279.52;107793;1263;69933;-71
2022/12/08 03:37:16;;;;;;;42.00;24.20;;;;;;;-3.70;100.00;97283.35;107794;1268;59785;-71
2022/12/08 03:39:45;;;;;;;49.00;26.00;;;;;;;-3.67;100.00;97285.69;107785;1267;59762;-70
2022/12/08 03:42:15;;;;;;;45.30;25.80;;;;;;;-3.64;100.00;97282.91;107821;1266;71373;-70
2022/12/08 03:44:46;;;;;;;43.10;24.90;;;;;;;-3.61;100.00;97281.82;107691;1267;69163;-70
2022/12/08 03:47:15;;;;;;;43.80;24.80;;;;;;;-3.62;100.00;97282.70;107685;1269;69805;-70
2022/12/08 03:49:45;;;;;;;32.10;19.90;;;;;;;-3.66;100.00;97281.41;107728;1266;59755;-70
2022/12/08 03:52:15;;;;;;;32.10;20.10;;;;;;;-3.68;100.00;97278.21;107719;1267;59725;-70
2022/12/08 03:54:45;;;;;;;26.40;15.90;;;;;;;-3.69;100.00;97278.91;107774;1265;71382;-70
2022/12/08 03:57:16;;;;;;;34.40;20.60;;;;;;;-3.69;100.00;97279.94;107799;1263;69236;-70
2022/12/08 03:59:46;;;;;;;26.10;15.90;;;;;;;-3.71;100.00;97277.23;107824;1267;69288;-70
2022/12/08 04:02:15;;;;;;;38.40;22.30;;;;;;;-3.72;100.00;97276.92;107822;1266;59788;-71
2022/12/08 04:04:45;;;;;;;31.80;17.90;;;;;;;-3.74;100.00;97273.73;107687;1268;59674;-70
2022/12/08 04:07:14;;;;;;;29.40;17.50;;;;;;;-3.75;100.00;97275.10;107789;1263;70487;-70
2022/12/08 04:09:44;;;;;;;33.30;20.10;;;;;;;-3.78;100.00;97274.48;107799;1267;68394;-70
2022/12/08 04:12:15;;;;;;;27.20;18.50;;;;;;;-3.82;100.00;97272.51;107796;1266;69233;-70
2022/12/08 04:14:44;;;;;;;30.50;19.30;;;;;;;-3.88;100.00;97271.93;107814;1266;59706;-70
2022/12/08 04:17:13;;;;;;;28.90;16.10;;;;;;;-3.90;100.00;97274.87;107815;1267;59729;-70
2022/12/08 04:19:43;;;;;;;23.70;16.00;;;;;;;-3.94;100.00;97275.44;107810;1262;71204;-71
2022/12/08 04:22:13;;;;;;;23.00;14.70;;;;;;;-3.96;100.00;97271.90;107785;1267;68481;-69
2022/12/08 04:24:43;;;;;;;23.60;16.30;;;;;;;-3.97;100.00;97270.05;107782;1265;69176;-69
2022/12/08 04:27:12;;;;;;;;;;;;;;;-3.96;100.00;97271.08;107702;1267;59696;-69
2022/12/08 04:29:42;;;;;;;30.70;19.60;;;;;;;-3.98;100.00;97268.70;107764;1267;59728;-70
2022/12/08 04:32:12;;;;;;;34.90;21.30;;;;;;;-4.01;100.00;97264.17;107720;1263;71467;-70
2022/12/08 04:34:43;;;;;;;39.50;21.80;;;;;;;-4.02;100.00;97261.45;107815;1267;69857;-69
2022/12/08 04:37:12;;;;;;;33.10;20.70;;;;;;;-4.01;100.00;97257.36;107787;1268;69403;-71
2022/12/08 04:39:42;;;;;;;37.60;22.30;;;;;;;-3.99;100.00;97257.83;107763;1264;59629;-69
2022/12/08 04:42:12;;;;;;;38.00;22.80;;;;;;;-3.95;100.00;97254.18;107652;1270;59724;-69
2022/12/08 04:44:42;;;;;;;38.20;21.40;;;;;;;-3.90;100.00;97255.28;107771;1267;71381;-69
2022/12/08 04:47:12;;;;;;;42.00;23.90;;;;;;;-3.84;100.00;97257.90;107715;1269;68431;-70
2022/12/08 04:49:41;;;;;;;31.30;20.10;;;;;;;-3.79;100.00;97264.29;107793;1267;68916;-70
2022/12/08 04:52:10;;;;;;;36.00;19.50;;;;;;;-3.77;100.00;97261.20;107800;1267;59749;-70
2022/12/08 04:54:40;;;;;;;46.00;25.70;;;;;;;-3.73;100.00;97270.30;107808;1267;59657;-70
2022/12/08 04:57:09;;;;;;;53.60;30.20;;;;;;;-3.71;100.00;97278.09;107663;1269;71272;-70
2022/12/08 04:59:39;;;;;;;57.40;32.20;;;;;;;-3.73;100.00;97280.53;107833;1265;69352;-70
2022/12/08 05:02:08;;;;;;;47.40;29.60;;;;;;;-3.76;100.00;97284.65;107794;1266;68800;-70
2022/12/08 05:04:39;;;;;;;47.40;27.80;;;;;;;-3.80;100.00;97290.70;107766;1268;59679;-70
2022/12/08 05:07:08;;;;;;;41.00;25.50;;;;;;;-3.86;100.00;97292.51;107748;1267;59778;-70
2022/12/08 05:09:37;;;;;;;43.40;25.40;;;;;;;-3.88;100.00;97293.56;107744;1267;72180;-69
2022/12/08 05:12:07;;;;;;;46.30;25.20;;;;;;;-3.88;100.00;97292.02;107770;1264;69836;-70
2022/12/08 05:14:37;;;;;;;;;;;;;;;-3.84;100.00;97287.20;107791;1269;68263;-70
2022/12/08 05:17:06;;;;;;;30.80;18.70;;;;;;;-3.80;100.00;97288.30;107790;1270;59772;-70
2022/12/08 05:19:37;;;;;;;28.80;18.00;;;;;;;-3.72;100.00;97290.89;107759;1266;59666;-69
2022/12/08 05:22:07;;;;;;;40.00;25.10;;;;;;;-3.64;100.00;97296.36;107777;1266;71383;-70
2022/12/08 05:24:37;;;;;;;45.90;25.10;;;;;;;-3.57;100.00;97301.70;107837;1268;69227;-69
2022/12/08 05:27:16;;;;;;;43.00;27.40;;;;;;;-3.50;100.00;97306.34;107801;1267;67962;-69
2022/12/08 05:29:47;;;;;;;39.60;24.50;;;;;;;-3.47;100.00;97311.05;107673;1266;59773;-70
2022/12/08 05:32:16;;;;;;;42.10;25.90;;;;;;;-3.45;100.00;97312.20;107671;1267;59761;-70
2022/12/08 05:34:46;;;;;;;42.20;25.80;;;;;;;-3.39;100.00;97311.57;107646;1266;71372;-70
2022/12/08 05:37:15;;;;;;;45.80;26.10;;;;;;;-3.33;100.00;97313.52;107708;1267;69272;-70
2022/12/08 05:39:45;;;;;;;39.10;24.50;;;;;;;-3.28;100.00;97313.59;107753;1267;68412;-70
2022/12/08 05:42:15;;;;;;;35.20;23.30;;;;;;;-3.22;100.00;97317.55;107667;1266;60171;-70
2022/12/08 05:44:51;;;;;;;39.10;21.90;;;;;;;-3.14;100.00;97319.77;107653;1267;59682;-71
2022/12/08 05:47:20;;;;;;;36.00;22.80;;;;;;;-3.05;100.00;97314.14;107754;1265;71195;-70
2022/12/08 05:49:50;;;;;;;31.50;22.20;;;;;;;-2.96;100.00;97311.75;107713;1267;69267;-70
2022/12/08 05:52:19;;;;;;;36.70;22.80;;;;;;;-2.87;100.00;97311.38;107646;1267;68458;-71
2022/12/08 05:54:48;;;;;;;38.00;21.40;;;;;;;-2.77;100.00;97306.39;107737;1267;59794;-71
2022/12/08 05:57:16;;;;;;;36.60;22.70;;;;;;;-2.68;100.00;97307.39;107729;1267;59748;-71
2022/12/08 05:59:45;;;;;;;40.00;23.80;;;;;;;-2.60;100.00;97310.10;107832;1267;70901;-71
2022/12/08 06:02:15;;;;;;;40.30;23.60;;;;;;;-2.52;100.00;97312.84;107721;1267;68448;-70
2022/12/08 06:04:44;;;;;;;41.30;25.50;;;;;;;-2.45;100.00;97313.89;107773;1267;69311;-70
2022/12/08 06:07:14;;;;;;;36.90;24.30;;;;;;;-2.38;100.00;97307.07;107728;1267;59626;-69
2022/12/08 06:09:44;;;;;;;37.40;23.80;;;;;;;-2.32;100.00;97309.83;107641;1264;59657;-70
2022/12/08 06:12:14;;;;;;;37.10;23.90;;;;;;;-2.27;100.00;97315.34;107699;1268;72019;-70
2022/12/08 06:14:44;;;;;;;32.10;22.00;;;;;;;-2.23;100.00;97318.48;107664;1267;69701;-69
2022/12/08 06:17:12;;;;;;;30.50;19.50;;;;;;;-2.21;100.00;97321.17;107717;1270;69157;-71
2022/12/08 06:19:42;;;;;;;42.30;27.20;;;;;;;-2.18;100.00;97321.09;107741;1267;59768;-70
2022/12/08 06:22:11;;;;;;;45.40;27.80;;;;;;;-2.16;100.00;97323.44;107703;1270;59768;-69
2022/12/08 06:24:40;;;;;;;48.20;29.40;;;;;;;-2.14;100.00;97315.36;107732;1263;70404;-69
2022/12/08 06:27:09;;;;;;;37.60;24.50;;;;;;;-2.13;100.00;97319.95;107671;1267;68132;-70
2022/12/08 06:29:38;;;;;;;50.60;31.90;;;;;;;-2.13;100.00;97317.73;107639;1268;69725;-70
2022/12/08 06:32:07;;;;;;;40.40;26.60;;;;;;;-2.10;100.00;97321.77;107648;1267;59771;-70
2022/12/08 06:34:36;;;;;;;42.40;27.00;;;;;;;-2.05;100.00;97328.14;107736;1265;59703;-69
2022/12/08 06:37:05;;;;;;;46.80;28.10;;;;;;;-2.02;100.00;97325.51;107691;1267;71299;-70
2022/12/08 06:39:34;;;;;;;42.80;27.30;;;;;;;-1.99;100.00;97326.45;107699;1267;69820;-69
2022/12/08 06:44:51;;;;;;;40.60;25.00;;;;;;;-1.88;100.00;97328.06;107632;1267;59852;-70
2022/12/08 06:47:21;;;;;;;41.60;25.60;;;;;;;-1.82;100.00;97329.45;107759;1267;59683;-70
2022/12/08 06:49:53;;;;;;;42.90;28.40;;;;;;;-1.75;100.00;97326.90;107756;1267;71992;-70
2022/12/08 06:52:23;;;;;;;52.00;36.90;;;;;;;-1.68;100.00;97329.95;107658;1267;68537;-70
2022/12/08 06:54:52;;;;;;;62.80;45.50;;;;;;;-1.62;100.00;97325.02;107767;1264;69896;-70
2022/12/08 06:57:23;;;;;;;47.40;33.40;;;;;;;-1.60;100.00;97325.31;107632;1267;59768;-71
2022/12/08 06:59:52;;;;;;;50.90;33.90;;;;;;;-1.58;100.00;97327.83;107649;1267;59790;-70
2022/12/08 07:02:21;;;;;;;76.30;46.20;;;;;;;-1.54;100.00;97330.96;107650;1263;71863;-70
2022/12/08 07:04:50;;;;;;;60.70;39.40;;;;;;;-1.52;100.00;97341.36;107670;1267;69828;-69
2022/12/08 07:07:19;;;;;;;68.10;42.70;;;;;;;-1.61;100.00;97344.81;107611;1268;68754;-69
2022/12/08 07:09:47;;;;;;;77.80;47.90;;;;;;;-1.62;100.00;97347.56;107632;1267;59777;-69
2022/12/08 07:12:17;;;;;;;68.40;41.10;;;;;;;-1.63;100.00;97350.83;107810;1270;59721;-69
2022/12/08 07:14:45;;;;;;;53.70;35.10;;;;;;;-1.62;100.00;97352.38;107669;1267;72015;-70
2022/12/08 07:17:15;;;;;;;56.80;37.20;;;;;;;-1.57;100.00;97350.69;107687;1267;68435;-70
2022/12/08 07:19:44;;;;;;;58.10;40.10;;;;;;;-1.50;100.00;97351.55;107699;1267;69219;-70
2022/12/08 07:22:13;;;;;;;88.10;51.60;;;;;;;-1.42;100.00;97355.11;107672;1267;59745;-70
2022/12/08 07:24:41;;;;;;;74.90;47.80;;;;;;;-1.34;100.00;97357.63;107705;1263;59739;-69
2022/12/08 07:27:10;;;;;;;68.10;43.30;;;;;;;-1.26;100.00;97363.23;107706;1267;71992;-71
2022/12/08 07:29:39;;;;;;;66.90;44.00;;;;;;;-1.18;100.00;97365.75;107635;1263;69845;-70
2022/12/08 07:32:08;;;;;;;60.70;40.10;;;;;;;-1.14;100.00;97361.70;107739;1266;69445;-69
2022/12/08 07:34:37;;;;;;;51.50;38.50;;;;;;;-1.07;100.00;97359.11;107644;1266;59765;-70
2022/12/08 07:37:06;;;;;;;44.60;34.40;;;;;;;-1.00;100.00;97357.74;107706;1267;60109;-70
2022/12/08 07:39:35;;;;;;;53.30;37.20;;;;;;;-0.90;100.00;97358.68;107720;1268;71343;-70
2022/12/08 07:42:04;;;;;;;48.10;32.70;;;;;;;-0.80;100.00;97359.73;107678;1268;68037;-69
2022/12/08 07:44:33;;;;;;;55.20;37.50;;;;;;;-0.71;100.00;97367.88;107687;1268;69498;-69
2022/12/08 07:47:03;;;;;;;46.90;31.60;;;;;;;-0.63;100.00;97375.52;107653;1267;59769;-69
2022/12/08 07:49:33;;;;;;;39.60;30.10;;;;;;;-0.54;100.00;97373.53;107649;1266;59706;-69
2022/12/08 07:52:01;;;;;;;43.10;29.10;;;;;;;-0.42;100.00;97374.55;107592;1267;71535;-70
2022/12/08 07:54:31;;;;;;;48.00;31.80;;;;;;;-0.28;100.00;97368.33;107711;1269;68485;-69
2022/12/08 07:57:02;;;;;;;56.30;39.40;;;;;;;-0.11;100.00;97365.39;107723;1269;69290;-69
2022/12/08 07:59:31;;;;;;;50.40;34.60;;;;;;;0.07;100.00;97369.84;107906;1266;60079;-69
2022/12/08 08:02:00;;;;;;;41.30;29.70;;;;;;;0.26;100.00;97373.48;107687;1266;59760;-69
2022/12/08 08:04:50;;;;;;;36.20;26.30;;;;;;;0.43;100.00;97370.86;107700;1267;71627;-71
2022/12/08 08:07:20;;;;;;;42.60;30.30;;;;;;;0.55;100.00;97367.24;107769;1267;69256;-70
2022/12/08 08:09:49;;;;;;;38.30;28.00;;;;;;;0.63;100.00;97360.08;107722;1270;68416;-70
2022/12/08 08:12:19;;;;;;;41.60;29.90;;;;;;;0.75;100.00;97361.21;107733;1267;59718;-70
2022/12/08 08:15:06;;;;;;;49.20;35.80;;;;;;;0.86;99.42;97368.06;107712;1269;59658;-70
2022/12/08 08:17:37;;;;;;;53.40;37.80;;;;;;;0.94;98.03;97371.03;107739;1267;71435;-70
2022/12/08 08:20:07;;;;;;;51.30;36.00;;;;;;;1.03;98.57;97379.45;107750;1267;68316;-69
2022/12/08 08:22:36;;;;;;;51.80;36.60;;;;;;;1.11;98.79;97373.67;107764;1267;69914;-69
2022/12/08 08:25:05;;;;;;;52.80;35.40;;;;;;;1.18;98.10;97367.25;107816;1269;59736;-69
2022/12/08 08:27:33;;;;;;;48.10;34.30;;;;;;;1.25;98.34;97370.43;107733;1266;59674;-70
2022/12/08 08:30:06;;;;;;;37.90;29.30;;;;;;;1.35;98.32;97367.34;107691;1267;71368;-71
2022/12/08 08:32:36;;;;;;;45.90;32.60;;;;;;;1.43;98.59;97365.85;107783;1267;69748;-69
2022/12/08 08:35:06;;;;;;;38.20;30.10;;;;;;;1.47;98.91;97366.52;107728;1267;69894;-71
2022/12/08 08:37:35;;;;;;;57.30;43.80;;;;;;;1.50;98.51;97365.23;107655;1268;59777;-70
2022/12/08 08:40:04;;;;;;;59.90;43.80;;;;;;;1.47;96.81;97364.98;107732;1269;59752;-71
2022/12/08 08:42:33;;;;;;;56.70;40.70;;;;;;;1.47;96.49;97365.85;107752;1269;69416;-70
2022/12/08 08:45:03;;;;;;;57.80;41.20;;;;;;;1.48;96.15;97360.16;107749;1264;68674;-70
2022/12/08 08:47:32;;;;;;;59.80;41.70;;;;;;;1.50;95.71;97356.11;107752;1267;69903;-71
2022/12/08 08:50:01;;;;;;;55.00;40.70;;;;;;;1.61;96.47;97351.41;107770;1267;59767;-70
2022/12/08 08:52:30;;;;;;;63.10;42.90;;;;;;;1.76;96.84;97343.81;107760;1268;59739;-70
2022/12/08 08:54:59;;;;;;;53.80;40.70;;;;;;;1.96;96.85;97345.25;107706;1268;72033;-70
2022/12/08 08:57:28;;;;;;;52.40;38.20;;;;;;;2.21;96.84;97341.16;107687;1267;69184;-70
2022/12/08 08:59:57;;;;;;;48.80;36.40;;;;;;;2.49;96.94;97338.79;107672;1267;68791;-70
2022/12/08 09:02:26;;;;;;;43.50;33.50;;;;;;;2.78;97.13;97337.05;107681;1267;59611;-70
2022/12/08 09:04:55;;;;;;;52.10;38.50;;;;;;;3.09;97.53;97332.27;107712;1267;59703;-70
2022/12/08 09:07:25;;;;;;;50.70;42.60;;;;;;;3.78;89.48;97334.84;107733;1267;70656;-70
2022/12/08 09:09:54;;;;;;;54.30;39.50;;;;;;;4.81;83.06;97333.25;107826;1268;69851;-70
2022/12/08 09:12:29;;;;;;;44.70;32.90;;;;;;;5.92;78.89;97322.83;107808;1267;68454;-71
2022/12/08 09:14:57;;;;;;;36.80;28.90;;;;;;;6.55;74.66;97317.94;107769;1267;59822;-69
2022/12/08 09:17:26;;;;;;;25.90;21.60;;;;;;;7.64;73.87;97317.96;107756;1268;59674;-71
2022/12/08 09:19:55;;;;;;;49.00;38.90;;;;;;;8.16;70.08;97321.77;107684;1267;71435;-70
2022/12/08 09:22:24;;;;;;;49.80;41.80;;;;;;;7.79;70.32;97323.27;107751;1267;69166;-70
2022/12/08 09:24:53;;;;;;;42.30;35.50;;;;;;;7.31;70.18;97322.95;107803;1268;69802;-70
2022/12/08 09:27:21;;;;;;;37.60;32.70;;;;;;;7.17;69.77;97315.83;107801;1267;59753;-71
2022/12/08 09:29:50;;;;;;;32.90;27.90;;;;;;;7.18;70.67;97309.19;107777;1267;59758;-70
2022/12/08 09:32:19;;;;;;;21.50;17.40;;;;;;;7.14;71.26;97308.38;107803;1268;71278;-69
2022/12/08 09:34:48;;;;;;;19.20;15.80;;;;;;;7.21;69.55;97303.77;107688;1269;69791;-71
2022/12/08 09:37:19;;;;;;;18.80;14.90;;;;;;;7.08;68.67;97302.86;107600;1267;68696;-71
2022/12/08 09:39:48;;;;;;;19.40;14.90;;;;;;;6.95;69.02;97299.48;107733;1271;59782;-71
2022/12/08 09:42:51;;;;;;;19.60;15.20;;;;;;;6.79;69.83;97298.66;107686;1271;59706;-70
2022/12/08 09:45:25;;;;;;;19.00;16.20;;;;;;;6.71;71.04;97291.73;107647;1266;70662;-70
2022/12/08 09:48:11;;;;;;;18.70;15.80;;;;;;;6.62;70.55;97289.44;107629;1267;69721;-70
2022/12/08 09:50:47;;;;;;;19.20;13.70;;;;;;;6.67;71.87;97289.38;107721;1267;69123;-70
2022/12/08 09:53:27;;;;;;;16.00;12.20;;;;;;;6.80;71.64;97286.15;107790;1268;59748;-70
2022/12/08 09:56:12;;;;;;;19.60;16.70;;;;;;;6.81;71.22;97280.05;107706;1270;59668;-70
2022/12/08 09:58:55;;;;;;;24.90;21.20;;;;;;;6.72;71.05;97280.40;107709;1267;71365;-70
2022/12/08 10:01:33;;;;;;;22.20;16.80;;;;;;;6.72;71.05;97280.36;107748;1268;68324;-70
2022/12/08 10:04:03;;;;;;;24.50;19.30;;;;;;;6.84;70.94;97283.13;107771;1267;68455;-71
2022/12/08 10:07:18;;;;;;;25.00;19.80;;;;;;;7.04;71.77;97286.26;107651;1269;59776;-70
2022/12/08 10:09:53;;;;;;;20.70;16.90;;;;;;;6.93;68.83;97287.79;107396;1273;59710;-70
2022/12/08 10:12:27;;;;;;;24.10;18.10;;;;;;;7.04;69.97;97288.17;107830;1268;71888;-70
2022/12/08 10:15:12;;;;;;;19.20;15.50;;;;;;;7.02;69.50;97286.90;107708;1268;69137;-70
2022/12/08 10:17:48;;;;;;;16.90;14.70;;;;;;;7.24;71.39;97286.23;107764;1265;69855;-70
2022/12/08 10:20:25;;;;;;;18.10;16.00;;;;;;;7.21;68.19;97285.56;107669;1267;59785;-70
2022/12/08 10:23:28;;;;;;;19.80;16.10;;;;;;;7.17;69.17;97282.55;107679;1267;60002;-70
2022/12/08 10:26:00;;;;;;;20.00;15.70;;;;;;;7.15;67.87;97278.66;107357;1267;70785;-70
2022/12/08 10:28:32;;;;;;;19.20;16.40;;;;;;;7.36;69.09;97273.36;107790;1267;69265;-70
2022/12/08 10:31:01;;;;;;;16.00;13.30;;;;;;;7.57;67.30;97269.65;107766;1267;69904;-71
2022/12/08 10:33:31;;;;;;;14.70;11.60;;;;;;;7.94;69.42;97266.09;107722;1267;59693;-71
2022/12/08 10:36:03;;;;;;;13.80;11.20;;;;;;;8.25;68.08;97262.69;107774;1268;59720;-70
2022/12/08 10:38:37;;;;;;;16.20;12.10;;;;;;;8.57;69.44;97265.45;107700;1267;70402;-71
2022/12/08 10:41:08;;;;;;;18.90;14.30;;;;;;;8.84;66.96;97265.86;107663;1267;68235;-71
2022/12/08 10:43:46;;;;;;;16.60;13.40;;;;;;;9.17;67.00;97254.55;107654;1267;69934;-70
2022/12/08 10:46:21;;;;;;;12.30;9.90;;;;;;;9.77;62.76;97243.52;107608;1267;59744;-71
2022/12/08 10:49:08;;;;;;;10.00;8.60;;;;;;;10.16;60.25;97237.74;107672;1267;59770;-71
2022/12/08 10:51:41;;;;;;;14.20;10.90;;;;;;;10.15;58.22;97231.17;107700;1267;70514;-70
2022/12/08 10:54:27;;;;;;;13.10;10.70;;;;;;;10.26;60.96;97226.58;107666;1270;69674;-72
2022/12/08 10:56:57;;;;;;;10.00;8.80;;;;;;;10.14;57.16;97223.06;107950;1263;69083;-69
2022/12/08 10:59:26;;;;;;;12.10;9.80;;;;;;;10.21;57.29;97222.86;107733;1267;59688;-70
2022/12/08 11:01:55;;;;;;;11.10;9.50;;;;;;;10.55;56.87;97215.17;107792;1262;59654;-71
2022/12/08 11:04:34;;;;;;;9.70;7.90;;;;;;;11.28;59.89;97214.89;107792;1267;70563;-71
2022/12/08 11:07:05;;;;;;;9.60;7.40;;;;;;;11.42;57.48;97213.09;107730;1267;69161;-70
2022/12/08 11:09:51;;;;;;;9.60;7.60;;;;;;;10.92;55.87;97216.98;107747;1263;69832;-70
2022/12/08 11:12:21;;;;;;;10.40;8.90;;;;;;;10.44;56.58;97219.61;107663;1267;59754;-69
2022/12/08 11:14:57;;;;;;;8.80;7.90;;;;;;;10.16;58.14;97215.11;107743;1267;59716;-70
2022/12/08 11:17:34;;;;;;;11.60;9.60;;;;;;;9.70;57.77;97206.96;107711;1267;71222;-70
2022/12/08 11:20:23;;;;;;;10.90;8.40;;;;;;;9.36;59.24;97196.37;107488;1268;69179;-69
2022/12/08 11:22:54;;;;;;;8.30;7.00;;;;;;;9.49;59.43;97177.83;107690;1270;69217;-71
2022/12/08 11:25:26;;;;;;;12.70;10.00;;;;;;;10.23;59.01;97169.48;107683;1268;59779;-72
2022/12/08 11:28:00;;;;;;;12.00;9.20;;;;;;;11.31;56.92;97162.88;107781;1265;59710;-71
2022/12/08 11:30:39;;;;;;;10.10;8.60;;;;;;;12.21;53.28;97162.36;107774;1270;70574;-71
2022/12/08 11:33:29;;;;;;;8.20;6.30;;;;;;;13.19;52.55;97160.44;107719;1269;69673;-71
2022/12/08 11:36:08;;;;;;;6.60;5.50;;;;;;;13.85;50.87;97155.18;107660;1269;69387;-71
2022/12/08 11:38:43;;;;;;;6.80;5.80;;;;;;;14.21;48.24;97149.98;107663;1269;59776;-71
2022/12/08 11:41:21;;;;;;;6.30;5.40;;;;;;;14.86;47.46;97144.40;107717;1270;59758;-72
2022/12/08 11:44:27;;;;;;;7.00;5.60;;;;;;;15.38;44.11;97134.08;107641;1270;71382;-72